createdAt,value
2023-05-09T00:00:00.943Z,5.97
2023-05-09T00:02:29.607Z,6.00
2023-05-09T00:04:56.763Z,6.00
2023-05-09T00:07:23.123Z,5.81
2023-05-09T00:09:49.501Z,5.84
2023-05-09T00:12:15.911Z,5.70
2023-05-09T00:14:45.286Z,5.58
2023-05-09T00:17:14.518Z,5.57
2023-05-09T00:19:41.133Z,5.70
2023-05-09T00:22:09.170Z,5.46
2023-05-09T00:24:35.561Z,5.33
2023-05-09T00:27:01.943Z,5.42
2023-05-09T00:29:28.296Z,5.40
2023-05-09T00:31:54.727Z,5.34
2023-05-09T00:34:21.107Z,5.43
2023-05-09T00:36:47.579Z,5.46
2023-05-09T00:39:13.934Z,5.45
2023-05-09T00:41:40.568Z,5.41
2023-05-09T00:44:07.010Z,5.50
2023-05-09T00:46:33.506Z,5.56
2023-05-09T00:49:00.371Z,5.63
2023-05-09T00:51:28.470Z,5.72
2023-05-09T00:53:54.893Z,5.55
2023-05-09T00:56:21.988Z,5.62
2023-05-09T00:58:48.539Z,5.67
2023-05-09T01:01:14.964Z,5.66
2023-05-09T01:03:41.903Z,5.84
2023-05-09T01:06:39.588Z,6.06
2023-05-09T01:09:21.687Z,6.17
2023-05-09T01:12:11.143Z,6.19
2023-05-09T01:15:05.976Z,6.19
2023-05-09T01:17:48.240Z,6.37
2023-05-09T01:20:24.264Z,6.47
2023-05-09T01:23:14.729Z,6.50
2023-05-09T01:25:59.133Z,6.49
2023-05-09T01:28:55.626Z,6.43
2023-05-09T01:31:22.785Z,6.44
2023-05-09T01:34:02.461Z,6.48
2023-05-09T01:36:32.774Z,6.42
2023-05-09T01:38:59.771Z,6.47
2023-05-09T01:41:30.447Z,6.46
2023-05-09T01:44:00.933Z,6.42
2023-05-09T01:46:28.365Z,6.46
2023-05-09T01:48:56.059Z,6.37
2023-05-09T01:51:22.587Z,6.45
2023-05-09T01:53:51.216Z,6.42
2023-05-09T01:56:18.747Z,6.48
2023-05-09T01:58:48.400Z,6.49
2023-05-09T02:01:15.742Z,6.46
2023-05-09T02:03:44.885Z,6.36
2023-05-09T02:06:11.802Z,6.30
2023-05-09T02:08:38.628Z,6.36
2023-05-09T02:11:05.005Z,6.31
2023-05-09T02:13:31.359Z,6.28
2023-05-09T02:15:58.127Z,6.35
2023-05-09T02:18:24.580Z,6.37
2023-05-09T02:20:50.959Z,6.24
2023-05-09T02:23:17.448Z,6.21
2023-05-09T02:25:44.318Z,6.15
2023-05-09T02:28:11.250Z,6.22
2023-05-09T02:30:41.981Z,6.09
2023-05-09T02:33:10.685Z,6.19
2023-05-09T02:35:43.892Z,6.12
2023-05-09T02:38:10.561Z,6.09
2023-05-09T02:40:37.022Z,6.02
2023-05-09T02:43:04.052Z,6.05
2023-05-09T02:45:30.693Z,6.04
2023-05-09T02:47:57.052Z,6.10
2023-05-09T02:50:23.523Z,5.92
2023-05-09T02:52:49.872Z,5.90
2023-05-09T02:55:16.333Z,5.82
2023-05-09T02:57:43.072Z,5.87
2023-05-09T03:00:09.993Z,5.74
2023-05-09T03:02:37.394Z,5.94
2023-05-09T03:05:04.039Z,5.86
2023-05-09T03:07:30.809Z,5.72
2023-05-09T03:09:57.246Z,5.84
2023-05-09T03:12:23.932Z,5.87
2023-05-09T03:14:50.291Z,5.87
2023-05-09T03:17:21.061Z,5.72
2023-05-09T03:19:50.858Z,5.62
2023-05-09T03:22:17.396Z,5.75
2023-05-09T03:24:43.732Z,5.77
2023-05-09T03:27:10.113Z,5.72
2023-05-09T03:29:36.468Z,5.83
2023-05-09T03:32:02.822Z,5.60
2023-05-09T03:34:29.159Z,5.51
2023-05-09T03:36:55.537Z,5.66
2023-05-09T03:39:21.925Z,5.48
2023-05-09T03:41:49.166Z,5.53
2023-05-09T03:44:15.885Z,5.67
2023-05-09T03:46:42.318Z,5.68
2023-05-09T03:49:08.904Z,5.60
2023-05-09T03:51:35.294Z,5.43
2023-05-09T03:54:01.650Z,5.52
2023-05-09T03:56:28.004Z,5.56
2023-05-09T03:58:54.352Z,5.58
2023-05-09T04:01:20.762Z,5.58
2023-05-09T04:03:47.156Z,5.57
2023-05-09T04:06:13.574Z,5.69
2023-05-09T04:08:39.920Z,5.68
2023-05-09T04:11:06.396Z,5.85
2023-05-09T04:13:33.874Z,5.72
2023-05-09T04:16:00.347Z,5.96
2023-05-09T04:18:26.743Z,5.91
2023-05-09T04:20:53.540Z,6.14
2023-05-09T04:23:20.039Z,6.28
2023-05-09T04:25:46.487Z,6.42
2023-05-09T04:28:12.950Z,6.49
2023-05-09T04:30:39.394Z,6.49
2023-05-09T04:33:06.358Z,6.59
2023-05-09T04:35:32.881Z,6.61
2023-05-09T04:37:59.286Z,6.63
2023-05-09T04:40:26.982Z,6.64
2023-05-09T04:42:53.612Z,6.74
2023-05-09T04:45:20.220Z,7.06
2023-05-09T04:47:46.679Z,7.03
2023-05-09T04:50:13.293Z,7.10
2023-05-09T04:52:39.658Z,7.47
2023-05-09T04:55:06.509Z,7.25
2023-05-09T04:57:33.182Z,7.49
2023-05-09T04:59:59.581Z,7.97
2023-05-09T05:02:25.971Z,7.90
2023-05-09T05:04:56.077Z,7.81
2023-05-09T05:07:26.707Z,7.83
2023-05-09T05:09:53.070Z,8.27
2023-05-09T05:12:19.471Z,8.40
2023-05-09T05:14:46.037Z,8.40
2023-05-09T05:17:12.429Z,8.36
2023-05-09T05:19:38.788Z,8.82
2023-05-09T05:22:05.234Z,8.93
2023-05-09T05:24:31.594Z,9.25
2023-05-09T05:26:57.920Z,9.15
2023-05-09T05:29:24.265Z,8.96
2023-05-09T05:31:50.671Z,8.96
2023-05-09T05:34:17.118Z,9.33
2023-05-09T05:36:43.465Z,9.11
2023-05-09T05:39:09.863Z,9.21
2023-05-09T05:41:36.207Z,9.90
2023-05-09T05:44:02.561Z,10.17
2023-05-09T05:46:28.944Z,9.97
2023-05-09T05:48:56.710Z,9.84
2023-05-09T05:51:23.071Z,9.53
2023-05-09T05:53:49.454Z,9.72
2023-05-09T05:56:15.824Z,9.78
2023-05-09T05:58:42.203Z,9.69
2023-05-09T06:01:08.547Z,9.91
2023-05-09T06:03:34.933Z,10.14
2023-05-09T06:06:01.538Z,10.02
2023-05-09T06:08:27.901Z,10.36
2023-05-09T06:10:54.278Z,10.15
2023-05-09T06:13:20.644Z,10.77
2023-05-09T06:15:47.228Z,11.38
2023-05-09T06:18:13.711Z,11.06
2023-05-09T06:20:40.150Z,10.85
2023-05-09T06:23:06.589Z,11.08
2023-05-09T06:25:32.938Z,11.02
2023-05-09T06:27:59.318Z,11.08
2023-05-09T06:30:26.978Z,10.81
2023-05-09T06:32:54.709Z,10.60
2023-05-09T06:35:21.351Z,10.83
2023-05-09T06:37:48.786Z,11.34
2023-05-09T06:40:16.156Z,11.81
2023-05-09T06:42:42.545Z,11.70
2023-05-09T06:45:09.287Z,11.92
2023-05-09T06:47:35.726Z,12.56
2023-05-09T06:50:02.166Z,12.90
2023-05-09T06:52:28.557Z,12.29
2023-05-09T06:54:54.996Z,12.83
2023-05-09T06:57:21.360Z,13.00
2023-05-09T06:59:47.776Z,12.80
2023-05-09T07:02:14.186Z,13.62
2023-05-09T07:04:40.593Z,13.26
2023-05-09T07:07:07.436Z,13.14
2023-05-09T07:09:33.832Z,13.43
2023-05-09T07:12:00.936Z,12.65
2023-05-09T07:14:27.382Z,12.93
2023-05-09T07:16:56.482Z,13.39
2023-05-09T07:19:26.700Z,13.24
2023-05-09T07:21:53.071Z,12.77
2023-05-09T07:24:19.445Z,12.79
2023-05-09T07:26:45.790Z,13.19
2023-05-09T07:29:12.157Z,14.22
2023-05-09T07:31:38.602Z,13.97
2023-05-09T07:34:05.018Z,14.53
2023-05-09T07:36:33.159Z,13.87
2023-05-09T07:39:00.767Z,13.55
2023-05-09T07:41:27.153Z,13.67
2023-05-09T07:43:53.520Z,14.18
2023-05-09T07:46:20.033Z,13.28
2023-05-09T07:48:46.533Z,13.61
2023-05-09T07:51:12.911Z,13.50
2023-05-09T07:53:39.287Z,13.52
2023-05-09T07:56:06.744Z,13.39
2023-05-09T07:58:33.352Z,14.55
2023-05-09T08:00:59.750Z,14.11
2023-05-09T08:03:26.256Z,13.71
2023-05-09T08:05:58.457Z,14.04
2023-05-09T08:08:24.835Z,14.08
2023-05-09T08:10:51.216Z,13.93
2023-05-09T08:13:18.939Z,14.08
2023-05-09T08:15:45.396Z,14.36
2023-05-09T08:18:11.820Z,14.34
2023-05-09T08:20:38.220Z,14.35
2023-05-09T08:23:04.604Z,14.18
2023-05-09T08:25:31.094Z,14.15
2023-05-09T08:27:57.497Z,14.05
2023-05-09T08:30:23.948Z,13.59
2023-05-09T08:32:50.369Z,14.60
2023-05-09T08:35:17.098Z,15.20
2023-05-09T08:37:44.011Z,14.90
2023-05-09T08:40:10.603Z,14.93
2023-05-09T08:42:38.572Z,14.47
2023-05-09T08:45:10.639Z,14.59
2023-05-09T08:47:38.059Z,14.75
2023-05-09T08:50:05.840Z,14.77
2023-05-09T08:52:33.472Z,14.43
2023-05-09T08:55:01.020Z,15.14
2023-05-09T08:57:28.043Z,15.25
2023-05-09T08:59:55.211Z,15.21
2023-05-09T09:02:21.784Z,15.23
2023-05-09T09:04:48.164Z,14.87
2023-05-09T09:07:15.427Z,15.81
2023-05-09T09:09:47.500Z,15.24
2023-05-09T09:12:15.763Z,14.66
2023-05-09T09:14:52.895Z,14.71
2023-05-09T09:17:21.206Z,15.42
2023-05-09T09:19:50.036Z,15.35
2023-05-09T09:22:18.991Z,15.13
2023-05-09T09:24:45.469Z,15.18
2023-05-09T09:27:11.858Z,15.26
2023-05-09T09:29:38.765Z,15.93
2023-05-09T09:32:06.954Z,16.14
2023-05-09T09:34:33.489Z,15.34
2023-05-09T09:36:59.912Z,14.93
2023-05-09T09:39:26.289Z,15.80
2023-05-09T09:41:53.156Z,15.67
2023-05-09T09:44:21.464Z,15.44
2023-05-09T09:46:51.620Z,15.73
2023-05-09T09:49:23.368Z,15.87
2023-05-09T09:51:51.622Z,16.07
2023-05-09T09:54:18.337Z,15.56
2023-05-09T09:56:47.237Z,15.55
2023-05-09T09:59:17.626Z,15.58
2023-05-09T10:01:57.536Z,16.07
2023-05-09T10:04:25.473Z,16.34
2023-05-09T10:06:56.468Z,16.18
2023-05-09T10:09:24.713Z,16.45
2023-05-09T10:11:52.285Z,16.50
2023-05-09T10:14:21.429Z,16.21
2023-05-09T10:16:49.725Z,15.57
2023-05-09T10:19:20.861Z,16.05
2023-05-09T10:21:51.709Z,16.83
2023-05-09T10:24:22.593Z,16.63
2023-05-09T10:26:52.158Z,16.72
2023-05-09T10:29:23.728Z,17.12
2023-05-09T10:31:58.124Z,16.79
2023-05-09T10:34:26.186Z,16.73
2023-05-09T10:36:53.855Z,16.85
2023-05-09T10:39:22.360Z,16.83
2023-05-09T10:41:49.850Z,17.32
2023-05-09T10:44:16.825Z,16.88
2023-05-09T10:46:45.013Z,17.29
2023-05-09T10:49:11.567Z,17.24
2023-05-09T10:51:37.988Z,16.68
2023-05-09T10:54:13.680Z,17.11
2023-05-09T10:56:40.085Z,17.66
2023-05-09T10:59:06.549Z,17.70
2023-05-09T11:01:39.066Z,17.55
2023-05-09T11:04:11.094Z,17.36
2023-05-09T11:06:45.412Z,17.54
2023-05-09T11:09:22.376Z,17.81
2023-05-09T11:11:53.304Z,17.41
2023-05-09T11:14:30.585Z,17.79
2023-05-09T11:16:59.062Z,17.99
2023-05-09T11:19:57.822Z,17.30
2023-05-09T11:22:27.847Z,16.88
2023-05-09T11:25:10.630Z,17.02
2023-05-09T11:27:48.660Z,17.42
2023-05-09T11:30:17.318Z,17.04
2023-05-09T11:32:51.088Z,17.07
2023-05-09T11:35:20.769Z,17.16
2023-05-09T11:37:52.970Z,17.20
2023-05-09T11:40:21.007Z,17.30
2023-05-09T11:42:56.203Z,17.02
2023-05-09T11:45:32.219Z,17.32
2023-05-09T11:47:59.281Z,18.00
2023-05-09T11:50:25.961Z,17.34
2023-05-09T11:52:53.605Z,17.69
2023-05-09T11:55:25.777Z,17.17
2023-05-09T11:57:54.073Z,17.60
2023-05-09T12:00:24.380Z,17.67
2023-05-09T12:02:51.804Z,17.79
2023-05-09T12:05:19.801Z,17.83
2023-05-09T12:07:47.107Z,17.18
2023-05-09T12:10:15.380Z,17.49
2023-05-09T12:12:44.627Z,17.37
2023-05-09T12:15:13.368Z,17.73
2023-05-09T12:17:41.245Z,17.66
2023-05-09T12:20:08.929Z,18.02
2023-05-09T12:22:37.470Z,18.11
2023-05-09T12:25:10.143Z,18.08
2023-05-09T12:27:38.275Z,18.07
2023-05-09T12:30:10.132Z,18.03
2023-05-09T12:32:40.334Z,18.31
2023-05-09T12:35:08.584Z,19.14
2023-05-09T12:37:34.937Z,18.59
2023-05-09T12:40:15.179Z,18.64
2023-05-09T12:42:45.264Z,18.54
2023-05-09T12:45:12.273Z,18.90
2023-05-09T12:47:39.392Z,18.22
2023-05-09T12:50:06.668Z,17.76
2023-05-09T12:52:41.705Z,17.68
2023-05-09T12:55:14.022Z,17.62
2023-05-09T12:57:40.950Z,17.56
2023-05-09T13:00:10.058Z,17.42
2023-05-09T13:02:41.589Z,17.34
2023-05-09T13:05:18.416Z,17.35
2023-05-09T13:07:51.125Z,17.60
2023-05-09T13:10:25.078Z,17.52
2023-05-09T13:12:52.272Z,17.70
2023-05-09T13:15:22.893Z,17.74
2023-05-09T13:17:51.111Z,17.91
2023-05-09T13:20:18.938Z,17.89
2023-05-09T13:22:46.076Z,17.58
2023-05-09T13:25:12.912Z,17.23
2023-05-09T13:27:39.306Z,17.56
2023-05-09T13:30:09.371Z,17.68
2023-05-09T13:32:36.604Z,17.93
2023-05-09T13:35:04.568Z,17.74
2023-05-09T13:37:30.965Z,17.79
2023-05-09T13:39:57.329Z,17.97
2023-05-09T13:42:23.671Z,17.80
2023-05-09T13:44:50.047Z,17.87
2023-05-09T13:47:16.399Z,17.86
2023-05-09T13:49:42.766Z,17.62
2023-05-09T13:52:09.136Z,17.61
2023-05-09T13:54:35.552Z,17.84
2023-05-09T13:57:05.243Z,17.89
2023-05-09T13:59:32.252Z,17.92
2023-05-09T14:02:00.336Z,18.00
2023-05-09T14:04:28.306Z,17.85
2023-05-09T14:06:55.452Z,18.05
2023-05-09T14:09:22.808Z,18.02
2023-05-09T14:11:52.966Z,17.86
2023-05-09T14:14:20.673Z,17.62
2023-05-09T14:16:47.291Z,17.67
2023-05-09T14:19:15.239Z,17.74
2023-05-09T14:21:43.003Z,17.58
2023-05-09T14:24:10.378Z,17.63
2023-05-09T14:26:36.666Z,17.82
2023-05-09T14:29:04.378Z,17.71
2023-05-09T14:31:30.880Z,17.96
2023-05-09T14:33:57.693Z,17.58
2023-05-09T14:36:24.048Z,17.71
2023-05-09T14:38:50.428Z,17.61
2023-05-09T14:41:18.582Z,17.69
2023-05-09T14:43:46.048Z,17.98
2023-05-09T14:46:12.457Z,17.92
2023-05-09T14:48:38.889Z,17.58
2023-05-09T14:51:05.492Z,17.59
2023-05-09T14:53:31.953Z,17.52
2023-05-09T14:55:58.379Z,17.63
2023-05-09T14:58:24.765Z,17.67
2023-05-09T15:00:52.780Z,17.76
2023-05-09T15:03:19.220Z,17.78
2023-05-09T15:05:45.605Z,17.79
2023-05-09T15:08:12.474Z,17.73
2023-05-09T15:10:38.877Z,17.83
2023-05-09T15:13:05.970Z,18.06
2023-05-09T15:15:32.476Z,17.70
2023-05-09T15:17:58.927Z,17.68
2023-05-09T15:20:25.311Z,17.71
2023-05-09T15:22:51.715Z,17.66
2023-05-09T15:25:18.167Z,17.61
2023-05-09T15:27:44.593Z,17.72
2023-05-09T15:30:11.753Z,17.64
2023-05-09T15:32:41.176Z,17.68
2023-05-09T15:35:08.396Z,17.82
2023-05-09T15:37:35.868Z,17.80
2023-05-09T15:40:02.769Z,17.59
2023-05-09T15:42:29.151Z,17.61
2023-05-09T15:44:55.576Z,17.61
2023-05-09T15:47:22.178Z,17.73
2023-05-09T15:49:48.564Z,17.63
2023-05-09T15:52:15.189Z,17.57
2023-05-09T15:54:41.726Z,17.51
2023-05-09T15:57:08.194Z,17.56
2023-05-09T15:59:34.730Z,17.58
2023-05-09T16:02:01.413Z,17.52
2023-05-09T16:04:27.829Z,17.59
2023-05-09T16:06:55.497Z,18.06
2023-05-09T16:09:21.909Z,18.55
2023-05-09T16:11:48.328Z,18.72
2023-05-09T16:14:14.797Z,19.67
2023-05-09T16:16:42.658Z,19.45
2023-05-09T16:19:09.803Z,19.83
2023-05-09T16:21:37.774Z,19.82
2023-05-09T16:24:05.006Z,20.65
2023-05-09T16:26:31.389Z,20.57
2023-05-09T16:28:58.020Z,20.74
2023-05-09T16:31:26.504Z,20.23
2023-05-09T16:33:54.112Z,20.86
2023-05-09T16:36:21.298Z,20.07
2023-05-09T16:38:47.669Z,19.96
2023-05-09T16:41:14.253Z,21.00
2023-05-09T16:43:40.800Z,20.12
2023-05-09T16:46:09.988Z,20.06
2023-05-09T16:48:36.401Z,19.64
2023-05-09T16:51:03.302Z,19.28
2023-05-09T16:53:29.721Z,19.41
2023-05-09T16:55:56.278Z,19.80
2023-05-09T16:58:22.747Z,19.76
2023-05-09T17:00:50.538Z,19.42
2023-05-09T17:03:17.009Z,18.96
2023-05-09T17:05:43.411Z,18.34
2023-05-09T17:08:09.789Z,18.40
2023-05-09T17:10:37.808Z,18.35
2023-05-09T17:13:08.890Z,18.08
2023-05-09T17:15:35.831Z,18.40
2023-05-09T17:18:03.065Z,18.41
2023-05-09T17:20:29.828Z,18.48
2023-05-09T17:22:56.955Z,18.49
2023-05-09T17:25:23.504Z,18.52
2023-05-09T17:27:49.940Z,17.89
2023-05-09T17:30:16.783Z,17.64
2023-05-09T17:32:43.804Z,17.68
2023-05-09T17:35:10.614Z,17.60
2023-05-09T17:37:37.704Z,17.49
2023-05-09T17:40:05.279Z,17.14
2023-05-09T17:42:32.433Z,17.17
2023-05-09T17:44:59.111Z,17.21
2023-05-09T17:47:25.704Z,17.27
2023-05-09T17:49:52.182Z,17.32
2023-05-09T17:52:18.683Z,16.71
2023-05-09T17:54:45.269Z,16.58
2023-05-09T17:57:11.693Z,16.23
2023-05-09T17:59:40.578Z,16.42
2023-05-09T18:02:07.906Z,16.02
2023-05-09T18:04:34.717Z,15.85
2023-05-09T18:07:01.578Z,15.57
2023-05-09T18:09:28.345Z,15.43
2023-05-09T18:11:54.728Z,15.52
2023-05-09T18:14:21.081Z,15.44
2023-05-09T18:16:48.199Z,15.39
2023-05-09T18:19:14.999Z,15.24
2023-05-09T18:21:41.573Z,15.12
2023-05-09T18:24:09.266Z,15.02
2023-05-09T18:26:36.294Z,15.03
2023-05-09T18:29:03.060Z,14.90
2023-05-09T18:31:31.279Z,14.95
2023-05-09T18:33:57.707Z,14.84
2023-05-09T18:36:24.160Z,14.77
2023-05-09T18:38:50.970Z,14.63
2023-05-09T18:41:17.436Z,14.61
2023-05-09T18:43:47.074Z,14.48
2023-05-09T18:46:17.382Z,14.38
2023-05-09T18:48:45.354Z,14.31
2023-05-09T18:51:12.094Z,14.24
2023-05-09T18:53:38.833Z,14.20
2023-05-09T18:56:05.295Z,14.17
2023-05-09T18:58:32.392Z,14.04
2023-05-09T19:00:59.037Z,14.01
2023-05-09T19:03:25.620Z,13.97
2023-05-09T19:05:52.098Z,13.87
2023-05-09T19:08:18.764Z,13.91
2023-05-09T19:10:45.532Z,13.75
2023-05-09T19:13:14.705Z,13.67
2023-05-09T19:15:42.628Z,13.57
2023-05-09T19:18:09.117Z,13.60
2023-05-09T19:20:35.577Z,13.57
2023-05-09T19:23:02.193Z,13.58
2023-05-09T19:25:30.447Z,13.50
2023-05-09T19:27:56.859Z,13.52
2023-05-09T19:30:23.301Z,13.36
2023-05-09T19:32:49.822Z,13.24
2023-05-09T19:35:16.684Z,13.15
2023-05-09T19:37:43.300Z,13.19
2023-05-09T19:40:11.314Z,13.02
2023-05-09T19:42:38.564Z,13.00
2023-05-09T19:45:05.353Z,12.91
2023-05-09T19:47:31.767Z,12.93
2023-05-09T19:49:58.275Z,12.90
2023-05-09T19:52:24.677Z,12.87
2023-05-09T19:54:51.382Z,12.73
2023-05-09T19:57:17.817Z,12.74
2023-05-09T19:59:44.285Z,12.69
2023-05-09T20:02:10.764Z,12.68
2023-05-09T20:04:37.661Z,12.68
2023-05-09T20:07:05.007Z,12.70
2023-05-09T20:09:32.946Z,12.57
2023-05-09T20:12:01.961Z,12.51
2023-05-09T20:14:30.697Z,12.52
2023-05-09T20:16:57.649Z,12.54
2023-05-09T20:19:24.272Z,12.49
2023-05-09T20:21:50.710Z,12.45
2023-05-09T20:24:19.518Z,12.50
2023-05-09T20:26:45.938Z,12.40
2023-05-09T20:29:12.316Z,12.42
2023-05-09T20:31:38.826Z,12.39
2023-05-09T20:34:05.518Z,12.26
2023-05-09T20:36:31.984Z,12.27
2023-05-09T20:38:58.383Z,12.23
2023-05-09T20:41:24.986Z,12.16
2023-05-09T20:43:51.394Z,12.11
2023-05-09T20:46:17.797Z,12.20
2023-05-09T20:48:44.392Z,12.14
2023-05-09T20:51:10.860Z,12.18
2023-05-09T20:53:37.739Z,12.28
2023-05-09T20:56:04.485Z,12.16
2023-05-09T20:58:32.154Z,12.25
2023-05-09T21:00:58.703Z,12.21
2023-05-09T21:03:25.203Z,12.24
2023-05-09T21:05:51.948Z,12.34
2023-05-09T21:08:18.452Z,12.42
2023-05-09T21:10:44.878Z,12.46
2023-05-09T21:13:11.290Z,12.45
2023-05-09T21:15:37.789Z,12.43
2023-05-09T21:18:04.683Z,12.34
2023-05-09T21:20:31.359Z,12.40
2023-05-09T21:22:57.745Z,12.43
2023-05-09T21:25:24.229Z,12.44
2023-05-09T21:27:50.623Z,12.50
2023-05-09T21:30:17.378Z,12.44
2023-05-09T21:32:43.996Z,12.40
2023-05-09T21:35:12.912Z,12.34
2023-05-09T21:37:39.560Z,12.35
2023-05-09T21:40:06.838Z,12.49
2023-05-09T21:42:33.284Z,12.46
2023-05-09T21:44:59.816Z,12.44
2023-05-09T21:47:26.445Z,12.42
2023-05-09T21:49:53.389Z,12.33
2023-05-09T21:52:19.895Z,12.30
2023-05-09T21:54:46.357Z,12.39
2023-05-09T21:57:12.790Z,12.31
2023-05-09T21:59:39.173Z,12.21
2023-05-09T22:02:05.791Z,12.22
2023-05-09T22:04:32.379Z,12.20
2023-05-09T22:06:58.773Z,12.02
2023-05-09T22:09:25.161Z,12.12
2023-05-09T22:11:52.787Z,12.11
2023-05-09T22:14:19.159Z,12.05
2023-05-09T22:16:45.684Z,12.01
2023-05-09T22:19:12.110Z,12.04
2023-05-09T22:21:38.565Z,12.05
2023-05-09T22:24:05.342Z,11.99
2023-05-09T22:26:31.855Z,11.96
2023-05-09T22:28:58.233Z,11.95
2023-05-09T22:31:24.769Z,11.85
2023-05-09T22:33:51.164Z,11.90
2023-05-09T22:36:17.544Z,11.99
2023-05-09T22:38:43.972Z,11.97
2023-05-09T22:41:10.583Z,12.06
2023-05-09T22:43:39.676Z,12.02
2023-05-09T22:46:06.421Z,11.96
2023-05-09T22:48:32.896Z,11.99
2023-05-09T22:50:59.361Z,11.98
2023-05-09T22:53:26.134Z,11.87
2023-05-09T22:55:53.839Z,11.94
2023-05-09T22:58:20.469Z,11.83
2023-05-09T23:00:46.931Z,11.84
2023-05-09T23:03:13.453Z,11.75
2023-05-09T23:05:39.957Z,11.86
2023-05-09T23:08:06.343Z,11.87
2023-05-09T23:10:32.707Z,11.82
2023-05-09T23:12:59.151Z,11.91
2023-05-09T23:15:25.625Z,11.87
2023-05-09T23:17:52.149Z,11.88
2023-05-09T23:20:18.866Z,11.92
2023-05-09T23:22:45.447Z,11.91
2023-05-09T23:25:11.832Z,11.88
2023-05-09T23:27:40.589Z,11.88
2023-05-09T23:30:09.447Z,11.80
2023-05-09T23:32:35.954Z,11.80
2023-05-09T23:35:03.504Z,11.82
2023-05-09T23:37:29.804Z,11.79
2023-05-09T23:39:56.281Z,11.74
2023-05-09T23:42:22.752Z,11.71
2023-05-09T23:44:49.142Z,11.76
2023-05-09T23:47:15.588Z,11.78
2023-05-09T23:49:43.154Z,11.72
2023-05-09T23:52:09.882Z,11.77
2023-05-09T23:54:36.295Z,11.68
2023-05-09T23:57:02.706Z,11.75
2023-05-09T23:59:29.102Z,11.68
